KFFL/FFL METAR and TAF weather

Enter ICAO airport designator
Station Type Date Time Source
KFFL METAR 2022/11/26 09:55 UTC NOAA

KFFL 260955Z AUTO 21006KT 10SM CLR 00/M04 A3011 RMK A01


Station Type Date Time Source
KFFL Decoded METAR 2022/11/26 09:55 UTC NOAA

Fair Field, IA, United States (KFFL) 41-03N 091-59W
Nov 26, 2022 - 04:55 AM EST / 2022.11.26 0955 UTC
Wind: from the SSW (210 degrees) at 7 MPH (6 KT):0
Visibility: 10 mile(s):0
Sky conditions: clear
Temperature: 32 F (0 C)
Windchill: 24 F (-4 C):1
Dew Point: 24 F (-4 C)
Relative Humidity: 74%
Pressure (altimeter): 30.11 in. Hg (1019 hPa)
ob: KFFL 260955Z AUTO 21006KT 10SM CLR 00/M04 A3011 RMK A01
cycle: 10

Station Type Date Time Source
KFFL TAF UTC NOAA

Error!

Example: see airport list